CheckWX is a tool to help pilots better visualize weather data.  It is not intended as a substitute for an official pre-flight weather briefing.

17:01:35 UTC

KOUN TAF
University of Oklahoma Westheimer Airport
Norman, Oklahoma, USA
KOUN 191422Z 1914/2012 13005KT P6SM SCT040 BKN250 TEMPO 1914/1917 BKN010 FM200700 11007KT P6SM OVC020

Sep-19@
14:00 UTC

Sep-19 @ 14:00 UTC

Sep-20@
07:00 UTC

Sep-20 @ 07:00 UTC

KOUN 191422Z 1914/2012 13005KT P6SM SCT040 BKN250
Wind
  • 130° at 5 KTS
Cloud Levels
  • Scattered at 4,000' AGL
  • Broken at 25,000' AGL

Sep-19@
14:00 UTC

Sep-19 @ 14:00 UTC

Sep-19@
17:00 UTC

Sep-19 @ 17:00 UTC

TEMPO 1914/1917 BKN010

Expired

Cloud Levels
  • Broken at 1,000' AGL

Sep-20@
07:00 UTC

Sep-20 @ 07:00 UTC

Sep-20@
12:00 UTC

Sep-20 @ 12:00 UTC

FM200700 11007KT P6SM OVC020

From

From Standard forecast or significant change

Wind
  • 110° at 7 KTS
Cloud Levels
  • Overcast at 2,000' AGL